sensor_id;sensor_type;location;lat;lon;timestamp;P1;durP1;ratioP1;P2;durP2;ratioP2
7845;SDS011;3968;51.424;6.788;2022-12-18T00:02:11;13.37;;;9.83;;
7845;SDS011;3968;51.424;6.788;2022-12-18T00:04:37;19.07;;;10.30;;
7845;SDS011;3968;51.424;6.788;2022-12-18T00:07:03;17.87;;;10.17;;
7845;SDS011;3968;51.424;6.788;2022-12-18T00:09:29;15.63;;;10.77;;
7845;SDS011;3968;51.424;6.788;2022-12-18T00:11:55;16.63;;;10.70;;
7845;SDS011;3968;51.424;6.788;2022-12-18T00:14:21;13.73;;;9.63;;
7845;SDS011;3968;51.424;6.788;2022-12-18T00:16:47;16.53;;;10.43;;
7845;SDS011;3968;51.424;6.788;2022-12-18T00:19:13;14.07;;;10.60;;
7845;SDS011;3968;51.424;6.788;2022-12-18T00:21:40;14.40;;;9.63;;
7845;SDS011;3968;51.424;6.788;2022-12-18T00:24:06;16.60;;;10.03;;
7845;SDS011;3968;51.424;6.788;2022-12-18T00:26:33;16.83;;;9.73;;
7845;SDS011;3968;51.424;6.788;2022-12-18T00:29:00;16.17;;;10.77;;
7845;SDS011;3968;51.424;6.788;2022-12-18T00:31:26;17.10;;;10.30;;
7845;SDS011;3968;51.424;6.788;2022-12-18T00:33:53;17.73;;;10.83;;
7845;SDS011;3968;51.424;6.788;2022-12-18T00:36:21;16.20;;;9.73;;
7845;SDS011;3968;51.424;6.788;2022-12-18T00:38:47;16.93;;;10.47;;
7845;SDS011;3968;51.424;6.788;2022-12-18T00:41:14;14.37;;;9.97;;
7845;SDS011;3968;51.424;6.788;2022-12-18T00:43:59;14.47;;;8.80;;
7845;SDS011;3968;51.424;6.788;2022-12-18T00:46:25;15.97;;;10.00;;
7845;SDS011;3968;51.424;6.788;2022-12-18T00:48:51;12.90;;;8.67;;
7845;SDS011;3968;51.424;6.788;2022-12-18T00:51:20;14.10;;;9.27;;
7845;SDS011;3968;51.424;6.788;2022-12-18T00:53:46;13.50;;;9.27;;
7845;SDS011;3968;51.424;6.788;2022-12-18T00:56:12;14.03;;;9.27;;
7845;SDS011;3968;51.424;6.788;2022-12-18T00:58:38;18.43;;;9.43;;
7845;SDS011;3968;51.424;6.788;2022-12-18T01:01:04;12.07;;;8.17;;
7845;SDS011;3968;51.424;6.788;2022-12-18T01:03:30;13.70;;;8.40;;
7845;SDS011;3968;51.424;6.788;2022-12-18T01:05:56;11.13;;;8.00;;
7845;SDS011;3968;51.424;6.788;2022-12-18T01:08:22;12.70;;;8.37;;
7845;SDS011;3968;51.424;6.788;2022-12-18T01:10:51;10.93;;;7.93;;
7845;SDS011;3968;51.424;6.788;2022-12-18T01:13:17;13.47;;;8.73;;
7845;SDS011;3968;51.424;6.788;2022-12-18T01:15:52;12.33;;;7.97;;
7845;SDS011;3968;51.424;6.788;2022-12-18T01:18:18;14.93;;;8.63;;
7845;SDS011;3968;51.424;6.788;2022-12-18T01:20:44;13.83;;;8.10;;
7845;SDS011;3968;51.424;6.788;2022-12-18T01:23:10;12.43;;;7.33;;
7845;SDS011;3968;51.424;6.788;2022-12-18T01:25:36;11.73;;;8.03;;
7845;SDS011;3968;51.424;6.788;2022-12-18T01:28:02;11.57;;;7.87;;
7845;SDS011;3968;51.424;6.788;2022-12-18T01:30:28;12.33;;;7.33;;
7845;SDS011;3968;51.424;6.788;2022-12-18T01:32:54;12.30;;;8.17;;
7845;SDS011;3968;51.424;6.788;2022-12-18T01:35:20;12.03;;;7.27;;
7845;SDS011;3968;51.424;6.788;2022-12-18T01:37:46;12.37;;;8.17;;
7845;SDS011;3968;51.424;6.788;2022-12-18T01:40:12;12.77;;;7.43;;
7845;SDS011;3968;51.424;6.788;2022-12-18T01:42:38;11.60;;;7.50;;
7845;SDS011;3968;51.424;6.788;2022-12-18T01:47:41;12.27;;;7.47;;
7845;SDS011;3968;51.424;6.788;2022-12-18T01:50:10;10.00;;;6.93;;
7845;SDS011;3968;51.424;6.788;2022-12-18T01:52:37;9.90;;;7.07;;
7845;SDS011;3968;51.424;6.788;2022-12-18T01:55:06;10.37;;;6.67;;
7845;SDS011;3968;51.424;6.788;2022-12-18T01:57:32;10.53;;;7.20;;
7845;SDS011;3968;51.424;6.788;2022-12-18T02:00:04;10.63;;;7.10;;
7845;SDS011;3968;51.424;6.788;2022-12-18T02:02:30;12.10;;;7.20;;
7845;SDS011;3968;51.424;6.788;2022-12-18T02:04:56;10.30;;;7.13;;
7845;SDS011;3968;51.424;6.788;2022-12-18T02:12:52;10.80;;;6.87;;
7845;SDS011;3968;51.424;6.788;2022-12-18T02:17:50;10.10;;;6.63;;
7845;SDS011;3968;51.424;6.788;2022-12-18T02:20:20;10.87;;;7.40;;
7845;SDS011;3968;51.424;6.788;2022-12-18T02:27:40;9.33;;;6.23;;
7845;SDS011;3968;51.424;6.788;2022-12-18T02:30:07;11.27;;;7.03;;
7845;SDS011;3968;51.424;6.788;2022-12-18T02:32:37;9.27;;;6.73;;
7845;SDS011;3968;51.424;6.788;2022-12-18T02:35:05;10.27;;;7.57;;
7845;SDS011;3968;51.424;6.788;2022-12-18T02:37:31;9.30;;;6.80;;
7845;SDS011;3968;51.424;6.788;2022-12-18T02:39:59;13.27;;;6.90;;
7845;SDS011;3968;51.424;6.788;2022-12-18T02:42:26;8.80;;;6.90;;
7845;SDS011;3968;51.424;6.788;2022-12-18T02:44:55;9.93;;;6.63;;
7845;SDS011;3968;51.424;6.788;2022-12-18T02:47:21;11.07;;;7.47;;
7845;SDS011;3968;51.424;6.788;2022-12-18T03:00:27;9.40;;;6.90;;
7845;SDS011;3968;51.424;6.788;2022-12-18T03:02:59;10.03;;;6.87;;
7845;SDS011;3968;51.424;6.788;2022-12-18T03:05:31;11.13;;;7.73;;
7845;SDS011;3968;51.424;6.788;2022-12-18T03:08:01;12.17;;;7.57;;
7845;SDS011;3968;51.424;6.788;2022-12-18T03:10:29;10.93;;;7.50;;
7845;SDS011;3968;51.424;6.788;2022-12-18T03:13:00;11.03;;;7.03;;
7845;SDS011;3968;51.424;6.788;2022-12-18T03:15:31;9.93;;;6.63;;
7845;SDS011;3968;51.424;6.788;2022-12-18T03:18:01;11.73;;;7.87;;
7845;SDS011;3968;51.424;6.788;2022-12-18T03:20:29;11.80;;;7.30;;
7845;SDS011;3968;51.424;6.788;2022-12-18T03:23:00;10.17;;;7.47;;
7845;SDS011;3968;51.424;6.788;2022-12-18T03:25:28;12.43;;;7.87;;
7845;SDS011;3968;51.424;6.788;2022-12-18T03:27:57;11.37;;;7.43;;
7845;SDS011;3968;51.424;6.788;2022-12-18T03:30:25;15.23;;;7.03;;
7845;SDS011;3968;51.424;6.788;2022-12-18T03:32:53;9.70;;;7.20;;
7845;SDS011;3968;51.424;6.788;2022-12-18T03:35:22;11.90;;;7.60;;
7845;SDS011;3968;51.424;6.788;2022-12-18T03:37:48;10.47;;;7.47;;
7845;SDS011;3968;51.424;6.788;2022-12-18T03:40:14;11.97;;;7.20;;
7845;SDS011;3968;51.424;6.788;2022-12-18T03:42:45;9.43;;;6.93;;
7845;SDS011;3968;51.424;6.788;2022-12-18T03:53:00;11.53;;;7.50;;
7845;SDS011;3968;51.424;6.788;2022-12-18T03:55:29;10.70;;;7.00;;
7845;SDS011;3968;51.424;6.788;2022-12-18T03:57:58;13.30;;;7.37;;
7845;SDS011;3968;51.424;6.788;2022-12-18T04:00:25;9.00;;;6.70;;
7845;SDS011;3968;51.424;6.788;2022-12-18T04:02:52;12.33;;;6.73;;
7845;SDS011;3968;51.424;6.788;2022-12-18T04:05:19;11.60;;;7.00;;
7845;SDS011;3968;51.424;6.788;2022-12-18T04:07:46;10.90;;;6.77;;
7845;SDS011;3968;51.424;6.788;2022-12-18T04:10:13;10.43;;;6.43;;
7845;SDS011;3968;51.424;6.788;2022-12-18T04:12:39;9.97;;;7.10;;
7845;SDS011;3968;51.424;6.788;2022-12-18T04:15:06;9.40;;;6.57;;
7845;SDS011;3968;51.424;6.788;2022-12-18T04:17:32;9.93;;;6.80;;
7845;SDS011;3968;51.424;6.788;2022-12-18T04:19:58;11.17;;;7.10;;
7845;SDS011;3968;51.424;6.788;2022-12-18T04:22:24;8.63;;;6.00;;
7845;SDS011;3968;51.424;6.788;2022-12-18T04:24:50;12.07;;;6.77;;
7845;SDS011;3968;51.424;6.788;2022-12-18T04:27:16;9.10;;;6.47;;
7845;SDS011;3968;51.424;6.788;2022-12-18T04:29:42;10.30;;;6.03;;
7845;SDS011;3968;51.424;6.788;2022-12-18T04:32:08;8.97;;;6.93;;
7845;SDS011;3968;51.424;6.788;2022-12-18T04:34:34;9.47;;;6.40;;
7845;SDS011;3968;51.424;6.788;2022-12-18T04:37:00;8.40;;;6.37;;
7845;SDS011;3968;51.424;6.788;2022-12-18T04:39:26;8.03;;;6.53;;
7845;SDS011;3968;51.424;6.788;2022-12-18T04:41:52;11.37;;;6.67;;
7845;SDS011;3968;51.424;6.788;2022-12-18T04:44:18;9.10;;;6.53;;
7845;SDS011;3968;51.424;6.788;2022-12-18T04:46:44;8.20;;;5.93;;
7845;SDS011;3968;51.424;6.788;2022-12-18T04:49:10;10.80;;;7.03;;
7845;SDS011;3968;51.424;6.788;2022-12-18T04:51:37;10.10;;;6.93;;
7845;SDS011;3968;51.424;6.788;2022-12-18T04:54:03;10.30;;;7.23;;
7845;SDS011;3968;51.424;6.788;2022-12-18T04:56:30;9.80;;;6.57;;
7845;SDS011;3968;51.424;6.788;2022-12-18T04:58:56;9.40;;;6.83;;
7845;SDS011;3968;51.424;6.788;2022-12-18T05:01:22;8.97;;;6.37;;
7845;SDS011;3968;51.424;6.788;2022-12-18T05:03:48;9.50;;;6.40;;
7845;SDS011;3968;51.424;6.788;2022-12-18T05:06:14;11.20;;;7.60;;
7845;SDS011;3968;51.424;6.788;2022-12-18T05:08:40;9.87;;;6.93;;
7845;SDS011;3968;51.424;6.788;2022-12-18T05:11:07;9.47;;;7.27;;
7845;SDS011;3968;51.424;6.788;2022-12-18T05:13:34;9.83;;;6.37;;
7845;SDS011;3968;51.424;6.788;2022-12-18T05:16:01;8.50;;;6.67;;
7845;SDS011;3968;51.424;6.788;2022-12-18T05:18:27;10.30;;;6.80;;
7845;SDS011;3968;51.424;6.788;2022-12-18T05:20:53;9.13;;;6.27;;
7845;SDS011;3968;51.424;6.788;2022-12-18T05:23:20;9.30;;;6.33;;
7845;SDS011;3968;51.424;6.788;2022-12-18T05:25:47;8.83;;;6.70;;
7845;SDS011;3968;51.424;6.788;2022-12-18T05:28:16;9.53;;;6.30;;
7845;SDS011;3968;51.424;6.788;2022-12-18T05:30:42;11.43;;;7.37;;
7845;SDS011;3968;51.424;6.788;2022-12-18T05:33:08;9.30;;;6.97;;
7845;SDS011;3968;51.424;6.788;2022-12-18T05:35:33;9.27;;;6.97;;
7845;SDS011;3968;51.424;6.788;2022-12-18T05:37:59;9.83;;;6.43;;
7845;SDS011;3968;51.424;6.788;2022-12-18T05:40:25;10.37;;;6.83;;
7845;SDS011;3968;51.424;6.788;2022-12-18T05:42:51;10.73;;;6.37;;
7845;SDS011;3968;51.424;6.788;2022-12-18T05:45:17;10.13;;;6.50;;
7845;SDS011;3968;51.424;6.788;2022-12-18T05:47:46;9.20;;;6.30;;
7845;SDS011;3968;51.424;6.788;2022-12-18T05:50:12;9.70;;;6.80;;
7845;SDS011;3968;51.424;6.788;2022-12-18T05:52:38;9.27;;;6.20;;
7845;SDS011;3968;51.424;6.788;2022-12-18T05:55:04;7.17;;;5.70;;
7845;SDS011;3968;51.424;6.788;2022-12-18T05:57:30;7.77;;;5.63;;
7845;SDS011;3968;51.424;6.788;2022-12-18T05:59:56;9.50;;;6.13;;
7845;SDS011;3968;51.424;6.788;2022-12-18T06:02:22;8.67;;;6.50;;
7845;SDS011;3968;51.424;6.788;2022-12-18T06:04:48;9.60;;;6.77;;
7845;SDS011;3968;51.424;6.788;2022-12-18T06:07:14;10.17;;;6.40;;
7845;SDS011;3968;51.424;6.788;2022-12-18T06:09:40;9.83;;;6.53;;
7845;SDS011;3968;51.424;6.788;2022-12-18T06:12:06;10.37;;;7.00;;
7845;SDS011;3968;51.424;6.788;2022-12-18T06:14:32;9.70;;;6.57;;
7845;SDS011;3968;51.424;6.788;2022-12-18T06:16:58;11.00;;;6.67;;
7845;SDS011;3968;51.424;6.788;2022-12-18T06:19:24;9.43;;;7.00;;
7845;SDS011;3968;51.424;6.788;2022-12-18T06:21:50;9.97;;;7.17;;
7845;SDS011;3968;51.424;6.788;2022-12-18T06:24:16;9.07;;;6.77;;
7845;SDS011;3968;51.424;6.788;2022-12-18T06:26:42;11.60;;;6.87;;
7845;SDS011;3968;51.424;6.788;2022-12-18T06:29:08;8.63;;;6.17;;
7845;SDS011;3968;51.424;6.788;2022-12-18T06:34:11;10.90;;;7.43;;
7845;SDS011;3968;51.424;6.788;2022-12-18T06:36:37;9.33;;;6.63;;
7845;SDS011;3968;51.424;6.788;2022-12-18T06:39:03;11.73;;;7.20;;
7845;SDS011;3968;51.424;6.788;2022-12-18T06:41:29;11.50;;;6.80;;
7845;SDS011;3968;51.424;6.788;2022-12-18T06:43:56;10.33;;;6.97;;
7845;SDS011;3968;51.424;6.788;2022-12-18T06:46:23;9.73;;;6.53;;
7845;SDS011;3968;51.424;6.788;2022-12-18T06:48:49;10.53;;;6.90;;
7845;SDS011;3968;51.424;6.788;2022-12-18T06:51:19;9.23;;;6.87;;
7845;SDS011;3968;51.424;6.788;2022-12-18T06:53:45;10.07;;;6.40;;
7845;SDS011;3968;51.424;6.788;2022-12-18T06:56:12;9.07;;;6.80;;
7845;SDS011;3968;51.424;6.788;2022-12-18T06:58:38;9.50;;;6.10;;
7845;SDS011;3968;51.424;6.788;2022-12-18T07:01:07;9.33;;;6.30;;
7845;SDS011;3968;51.424;6.788;2022-12-18T07:03:33;11.30;;;7.17;;
7845;SDS011;3968;51.424;6.788;2022-12-18T07:05:59;10.20;;;6.70;;
7845;SDS011;3968;51.424;6.788;2022-12-18T07:08:26;10.00;;;6.67;;
7845;SDS011;3968;51.424;6.788;2022-12-18T07:10:52;9.07;;;6.73;;
7845;SDS011;3968;51.424;6.788;2022-12-18T07:13:18;10.17;;;7.33;;
7845;SDS011;3968;51.424;6.788;2022-12-18T07:15:44;10.47;;;7.10;;
7845;SDS011;3968;51.424;6.788;2022-12-18T07:18:10;8.97;;;7.03;;
7845;SDS011;3968;51.424;6.788;2022-12-18T07:20:36;10.50;;;6.87;;
7845;SDS011;3968;51.424;6.788;2022-12-18T07:23:03;10.97;;;7.23;;
7845;SDS011;3968;51.424;6.788;2022-12-18T07:25:30;11.63;;;8.00;;
7845;SDS011;3968;51.424;6.788;2022-12-18T07:27:56;12.87;;;7.53;;
7845;SDS011;3968;51.424;6.788;2022-12-18T07:30:22;10.10;;;6.37;;
7845;SDS011;3968;51.424;6.788;2022-12-18T07:32:48;10.23;;;6.80;;
7845;SDS011;3968;51.424;6.788;2022-12-18T07:35:14;10.23;;;6.63;;
7845;SDS011;3968;51.424;6.788;2022-12-18T07:37:40;10.53;;;6.97;;
7845;SDS011;3968;51.424;6.788;2022-12-18T07:40:06;10.40;;;6.87;;
7845;SDS011;3968;51.424;6.788;2022-12-18T07:42:32;13.27;;;7.37;;
7845;SDS011;3968;51.424;6.788;2022-12-18T07:44:59;11.67;;;7.07;;
7845;SDS011;3968;51.424;6.788;2022-12-18T07:47:26;8.60;;;6.13;;
7845;SDS011;3968;51.424;6.788;2022-12-18T07:49:52;11.13;;;7.10;;
7845;SDS011;3968;51.424;6.788;2022-12-18T07:52:18;9.97;;;7.40;;
7845;SDS011;3968;51.424;6.788;2022-12-18T07:54:44;10.40;;;7.10;;
7845;SDS011;3968;51.424;6.788;2022-12-18T07:57:13;13.23;;;7.77;;
7845;SDS011;3968;51.424;6.788;2022-12-18T07:59:40;10.63;;;6.80;;
7845;SDS011;3968;51.424;6.788;2022-12-18T08:02:06;21.23;;;11.47;;
7845;SDS011;3968;51.424;6.788;2022-12-18T08:04:35;42.47;;;22.83;;
7845;SDS011;3968;51.424;6.788;2022-12-18T08:07:01;9.93;;;7.23;;
7845;SDS011;3968;51.424;6.788;2022-12-18T08:09:27;9.83;;;7.07;;
7845;SDS011;3968;51.424;6.788;2022-12-18T08:11:53;12.20;;;7.37;;
7845;SDS011;3968;51.424;6.788;2022-12-18T08:14:19;10.27;;;7.30;;
7845;SDS011;3968;51.424;6.788;2022-12-18T08:16:45;8.20;;;6.47;;
7845;SDS011;3968;51.424;6.788;2022-12-18T08:19:11;10.40;;;7.10;;
7845;SDS011;3968;51.424;6.788;2022-12-18T08:21:37;11.07;;;6.70;;
7845;SDS011;3968;51.424;6.788;2022-12-18T08:24:06;9.67;;;7.03;;
7845;SDS011;3968;51.424;6.788;2022-12-18T08:26:32;11.67;;;7.70;;
7845;SDS011;3968;51.424;6.788;2022-12-18T08:28:58;10.03;;;6.97;;
7845;SDS011;3968;51.424;6.788;2022-12-18T08:31:25;10.87;;;7.47;;
7845;SDS011;3968;51.424;6.788;2022-12-18T08:33:51;11.03;;;7.30;;
7845;SDS011;3968;51.424;6.788;2022-12-18T08:36:18;14.60;;;7.90;;
7845;SDS011;3968;51.424;6.788;2022-12-18T08:38:45;14.47;;;9.27;;
7845;SDS011;3968;51.424;6.788;2022-12-18T08:41:11;11.70;;;7.87;;
7845;SDS011;3968;51.424;6.788;2022-12-18T08:43:38;15.07;;;8.47;;
7845;SDS011;3968;51.424;6.788;2022-12-18T08:46:23;11.63;;;8.57;;
7845;SDS011;3968;51.424;6.788;2022-12-18T08:48:50;14.87;;;8.97;;
7845;SDS011;3968;51.424;6.788;2022-12-18T08:51:17;15.10;;;9.53;;
7845;SDS011;3968;51.424;6.788;2022-12-18T08:53:43;17.03;;;11.80;;
7845;SDS011;3968;51.424;6.788;2022-12-18T08:56:12;25.13;;;14.93;;
7845;SDS011;3968;51.424;6.788;2022-12-18T08:58:38;26.63;;;16.07;;
7845;SDS011;3968;51.424;6.788;2022-12-18T09:01:05;29.27;;;18.00;;
7845;SDS011;3968;51.424;6.788;2022-12-18T09:03:31;31.73;;;19.80;;
7845;SDS011;3968;51.424;6.788;2022-12-18T09:05:58;32.73;;;19.33;;
7845;SDS011;3968;51.424;6.788;2022-12-18T09:08:24;32.80;;;19.27;;
7845;SDS011;3968;51.424;6.788;2022-12-18T09:10:51;29.77;;;18.67;;
7845;SDS011;3968;51.424;6.788;2022-12-18T09:13:17;32.97;;;19.00;;
7845;SDS011;3968;51.424;6.788;2022-12-18T09:15:43;27.90;;;17.00;;
7845;SDS011;3968;51.424;6.788;2022-12-18T09:18:13;26.70;;;15.67;;
7845;SDS011;3968;51.424;6.788;2022-12-18T09:20:40;26.17;;;16.13;;
7845;SDS011;3968;51.424;6.788;2022-12-18T09:23:06;22.10;;;13.40;;
7845;SDS011;3968;51.424;6.788;2022-12-18T09:25:32;20.67;;;13.93;;
7845;SDS011;3968;51.424;6.788;2022-12-18T09:28:00;20.67;;;13.50;;
7845;SDS011;3968;51.424;6.788;2022-12-18T09:30:26;22.37;;;14.30;;
7845;SDS011;3968;51.424;6.788;2022-12-18T09:32:52;19.13;;;12.07;;
7845;SDS011;3968;51.424;6.788;2022-12-18T09:35:18;15.40;;;9.90;;
7845;SDS011;3968;51.424;6.788;2022-12-18T09:37:44;16.63;;;10.37;;
7845;SDS011;3968;51.424;6.788;2022-12-18T09:40:14;11.33;;;8.57;;
7845;SDS011;3968;51.424;6.788;2022-12-18T09:42:42;11.77;;;8.30;;
7845;SDS011;3968;51.424;6.788;2022-12-18T09:45:12;12.07;;;7.67;;
7845;SDS011;3968;51.424;6.788;2022-12-18T09:47:39;10.43;;;7.57;;
7845;SDS011;3968;51.424;6.788;2022-12-18T09:50:27;10.83;;;7.40;;
7845;SDS011;3968;51.424;6.788;2022-12-18T09:52:56;10.33;;;6.47;;
7845;SDS011;3968;51.424;6.788;2022-12-18T09:55:30;10.17;;;6.80;;
7845;SDS011;3968;51.424;6.788;2022-12-18T09:58:00;14.90;;;10.37;;
7845;SDS011;3968;51.424;6.788;2022-12-18T10:00:28;14.47;;;9.93;;
7845;SDS011;3968;51.424;6.788;2022-12-18T10:03:01;13.03;;;9.37;;
7845;SDS011;3968;51.424;6.788;2022-12-18T10:05:33;12.20;;;8.57;;
7845;SDS011;3968;51.424;6.788;2022-12-18T10:10:52;11.67;;;8.90;;
7845;SDS011;3968;51.424;6.788;2022-12-18T10:13:39;16.33;;;10.93;;
7845;SDS011;3968;51.424;6.788;2022-12-18T10:16:12;13.93;;;9.53;;
7845;SDS011;3968;51.424;6.788;2022-12-18T10:21:13;9.33;;;7.20;;
7845;SDS011;3968;51.424;6.788;2022-12-18T10:26:19;10.47;;;6.23;;
7845;SDS011;3968;51.424;6.788;2022-12-18T10:28:45;8.53;;;6.13;;
7845;SDS011;3968;51.424;6.788;2022-12-18T10:31:16;11.17;;;6.07;;
7845;SDS011;3968;51.424;6.788;2022-12-18T10:33:42;7.90;;;6.53;;
7845;SDS011;3968;51.424;6.788;2022-12-18T10:36:08;8.60;;;6.10;;
7845;SDS011;3968;51.424;6.788;2022-12-18T10:38:34;12.17;;;8.43;;
7845;SDS011;3968;51.424;6.788;2022-12-18T10:41:02;17.23;;;10.23;;
7845;SDS011;3968;51.424;6.788;2022-12-18T10:43:29;15.33;;;10.90;;
7845;SDS011;3968;51.424;6.788;2022-12-18T10:46:00;15.90;;;11.83;;
7845;SDS011;3968;51.424;6.788;2022-12-18T10:48:26;13.77;;;9.70;;
7845;SDS011;3968;51.424;6.788;2022-12-18T10:50:53;12.00;;;8.60;;
7845;SDS011;3968;51.424;6.788;2022-12-18T10:53:22;11.40;;;8.20;;
7845;SDS011;3968;51.424;6.788;2022-12-18T10:55:48;10.37;;;7.47;;
7845;SDS011;3968;51.424;6.788;2022-12-18T11:00:40;8.57;;;6.27;;
7845;SDS011;3968;51.424;6.788;2022-12-18T11:03:28;9.77;;;7.33;;
7845;SDS011;3968;51.424;6.788;2022-12-18T11:06:01;9.80;;;6.53;;
7845;SDS011;3968;51.424;6.788;2022-12-18T11:08:27;9.83;;;7.10;;
7845;SDS011;3968;51.424;6.788;2022-12-18T11:10:53;14.13;;;9.40;;
7845;SDS011;3968;51.424;6.788;2022-12-18T11:13:23;16.97;;;10.53;;
7845;SDS011;3968;51.424;6.788;2022-12-18T11:15:50;16.13;;;11.13;;
7845;SDS011;3968;51.424;6.788;2022-12-18T11:18:17;15.30;;;9.87;;
7845;SDS011;3968;51.424;6.788;2022-12-18T11:20:49;12.53;;;9.33;;
7845;SDS011;3968;51.424;6.788;2022-12-18T11:23:16;14.10;;;8.37;;
7845;SDS011;3968;51.424;6.788;2022-12-18T11:25:42;11.37;;;7.80;;
7845;SDS011;3968;51.424;6.788;2022-12-18T11:29:07;11.33;;;7.53;;
7845;SDS011;3968;51.424;6.788;2022-12-18T11:33:42;9.97;;;6.80;;
7845;SDS011;3968;51.424;6.788;2022-12-18T11:36:10;11.67;;;7.33;;
7845;SDS011;3968;51.424;6.788;2022-12-18T11:38:37;9.33;;;7.20;;
7845;SDS011;3968;51.424;6.788;2022-12-18T11:41:07;10.77;;;7.00;;
7845;SDS011;3968;51.424;6.788;2022-12-18T11:43:38;9.67;;;6.37;;
7845;SDS011;3968;51.424;6.788;2022-12-18T11:46:06;8.80;;;6.27;;
7845;SDS011;3968;51.424;6.788;2022-12-18T11:48:34;9.90;;;7.13;;
7845;SDS011;3968;51.424;6.788;2022-12-18T11:51:03;11.07;;;6.93;;
7845;SDS011;3968;51.424;6.788;2022-12-18T11:53:30;8.70;;;6.73;;
7845;SDS011;3968;51.424;6.788;2022-12-18T12:01:35;14.87;;;11.27;;
7845;SDS011;3968;51.424;6.788;2022-12-18T12:03:45;18.77;;;11.23;;
7845;SDS011;3968;51.424;6.788;2022-12-18T12:06:35;13.90;;;9.33;;
7845;SDS011;3968;51.424;6.788;2022-12-18T12:21:47;10.73;;;7.90;;
7845;SDS011;3968;51.424;6.788;2022-12-18T12:31:41;12.93;;;8.53;;
7845;SDS011;3968;51.424;6.788;2022-12-18T12:36:41;13.70;;;9.27;;
7845;SDS011;3968;51.424;6.788;2022-12-18T12:39:13;13.53;;;9.57;;
7845;SDS011;3968;51.424;6.788;2022-12-18T12:41:39;13.03;;;8.80;;
7845;SDS011;3968;51.424;6.788;2022-12-18T12:44:27;14.43;;;9.17;;
7845;SDS011;3968;51.424;6.788;2022-12-18T12:46:55;19.13;;;11.53;;
7845;SDS011;3968;51.424;6.788;2022-12-18T12:49:21;19.50;;;12.17;;
7845;SDS011;3968;51.424;6.788;2022-12-18T12:52:31;15.50;;;10.40;;
7845;SDS011;3968;51.424;6.788;2022-12-18T12:54:37;12.53;;;8.87;;
7845;SDS011;3968;51.424;6.788;2022-12-18T12:57:37;13.43;;;9.23;;
7845;SDS011;3968;51.424;6.788;2022-12-18T13:07:40;17.57;;;10.93;;
7845;SDS011;3968;51.424;6.788;2022-12-18T13:15:25;13.67;;;8.57;;
7845;SDS011;3968;51.424;6.788;2022-12-18T13:20:36;11.93;;;7.73;;
7845;SDS011;3968;51.424;6.788;2022-12-18T13:31:03;11.93;;;8.73;;
7845;SDS011;3968;51.424;6.788;2022-12-18T13:36:15;15.60;;;10.00;;
7845;SDS011;3968;51.424;6.788;2022-12-18T13:38:42;15.23;;;9.30;;
7845;SDS011;3968;51.424;6.788;2022-12-18T13:43:57;15.63;;;10.07;;
7845;SDS011;3968;51.424;6.788;2022-12-18T13:46:42;14.87;;;9.77;;
7845;SDS011;3968;51.424;6.788;2022-12-18T13:51:39;16.07;;;10.63;;
7845;SDS011;3968;51.424;6.788;2022-12-18T13:56:46;19.97;;;12.40;;
7845;SDS011;3968;51.424;6.788;2022-12-18T14:01:42;14.20;;;10.73;;
7845;SDS011;3968;51.424;6.788;2022-12-18T14:04:09;14.77;;;10.93;;
7845;SDS011;3968;51.424;6.788;2022-12-18T14:06:36;15.10;;;9.67;;
7845;SDS011;3968;51.424;6.788;2022-12-18T14:09:02;15.67;;;10.23;;
7845;SDS011;3968;51.424;6.788;2022-12-18T14:11:28;14.97;;;10.03;;
7845;SDS011;3968;51.424;6.788;2022-12-18T14:13:57;15.30;;;10.03;;
7845;SDS011;3968;51.424;6.788;2022-12-18T14:16:23;16.60;;;10.10;;
7845;SDS011;3968;51.424;6.788;2022-12-18T14:18:56;15.67;;;10.87;;
7845;SDS011;3968;51.424;6.788;2022-12-18T14:21:26;15.43;;;10.57;;
7845;SDS011;3968;51.424;6.788;2022-12-18T14:24:03;16.70;;;10.03;;
7845;SDS011;3968;51.424;6.788;2022-12-18T14:26:30;16.50;;;10.13;;
7845;SDS011;3968;51.424;6.788;2022-12-18T14:28:58;16.50;;;10.67;;
7845;SDS011;3968;51.424;6.788;2022-12-18T14:31:27;16.47;;;10.90;;
7845;SDS011;3968;51.424;6.788;2022-12-18T14:33:53;18.63;;;11.70;;
7845;SDS011;3968;51.424;6.788;2022-12-18T14:36:21;21.70;;;13.47;;
7845;SDS011;3968;51.424;6.788;2022-12-18T14:38:48;20.97;;;14.00;;
7845;SDS011;3968;51.424;6.788;2022-12-18T14:41:15;20.30;;;14.57;;
7845;SDS011;3968;51.424;6.788;2022-12-18T14:43:43;20.07;;;13.80;;
7845;SDS011;3968;51.424;6.788;2022-12-18T14:46:29;23.53;;;14.00;;
7845;SDS011;3968;51.424;6.788;2022-12-18T14:48:57;21.80;;;14.03;;
7845;SDS011;3968;51.424;6.788;2022-12-18T14:51:24;17.67;;;11.80;;
7845;SDS011;3968;51.424;6.788;2022-12-18T14:53:55;16.83;;;11.50;;
7845;SDS011;3968;51.424;6.788;2022-12-18T14:56:22;19.67;;;11.40;;
7845;SDS011;3968;51.424;6.788;2022-12-18T14:58:59;18.37;;;11.80;;
7845;SDS011;3968;51.424;6.788;2022-12-18T15:01:36;19.37;;;12.47;;
7845;SDS011;3968;51.424;6.788;2022-12-18T15:04:03;18.70;;;11.80;;
7845;SDS011;3968;51.424;6.788;2022-12-18T15:06:34;19.47;;;11.47;;
7845;SDS011;3968;51.424;6.788;2022-12-18T15:09:05;16.03;;;11.03;;
7845;SDS011;3968;51.424;6.788;2022-12-18T15:11:42;16.50;;;11.07;;
7845;SDS011;3968;51.424;6.788;2022-12-18T15:14:22;18.07;;;12.13;;
7845;SDS011;3968;51.424;6.788;2022-12-18T15:16:50;17.77;;;11.50;;
7845;SDS011;3968;51.424;6.788;2022-12-18T15:19:16;16.83;;;11.43;;
7845;SDS011;3968;51.424;6.788;2022-12-18T15:21:42;16.70;;;11.33;;
7845;SDS011;3968;51.424;6.788;2022-12-18T15:24:15;18.63;;;11.97;;
7845;SDS011;3968;51.424;6.788;2022-12-18T15:26:42;21.47;;;13.90;;
7845;SDS011;3968;51.424;6.788;2022-12-18T15:29:19;18.63;;;11.93;;
7845;SDS011;3968;51.424;6.788;2022-12-18T15:32:00;19.03;;;12.13;;
7845;SDS011;3968;51.424;6.788;2022-12-18T15:34:26;18.63;;;11.93;;
7845;SDS011;3968;51.424;6.788;2022-12-18T15:36:53;18.50;;;13.27;;
7845;SDS011;3968;51.424;6.788;2022-12-18T15:39:19;22.80;;;13.90;;
7845;SDS011;3968;51.424;6.788;2022-12-18T15:41:44;23.00;;;13.90;;
7845;SDS011;3968;51.424;6.788;2022-12-18T15:44:29;22.40;;;13.70;;
7845;SDS011;3968;51.424;6.788;2022-12-18T15:46:55;19.37;;;13.67;;
7845;SDS011;3968;51.424;6.788;2022-12-18T15:49:21;24.07;;;13.30;;
7845;SDS011;3968;51.424;6.788;2022-12-18T15:51:49;16.50;;;12.07;;
7845;SDS011;3968;51.424;6.788;2022-12-18T15:54:16;21.80;;;13.87;;
7845;SDS011;3968;51.424;6.788;2022-12-18T15:56:42;19.43;;;12.53;;
7845;SDS011;3968;51.424;6.788;2022-12-18T15:59:27;21.70;;;13.37;;
7845;SDS011;3968;51.424;6.788;2022-12-18T16:01:53;20.67;;;14.17;;
7845;SDS011;3968;51.424;6.788;2022-12-18T16:04:20;20.67;;;13.00;;
7845;SDS011;3968;51.424;6.788;2022-12-18T16:06:47;23.07;;;13.57;;
7845;SDS011;3968;51.424;6.788;2022-12-18T16:09:13;17.10;;;11.67;;
7845;SDS011;3968;51.424;6.788;2022-12-18T16:11:39;22.63;;;13.23;;
7845;SDS011;3968;51.424;6.788;2022-12-18T16:16:33;21.20;;;13.90;;
7845;SDS011;3968;51.424;6.788;2022-12-18T16:18:59;19.33;;;13.73;;
7845;SDS011;3968;51.424;6.788;2022-12-18T16:21:25;22.47;;;13.63;;
7845;SDS011;3968;51.424;6.788;2022-12-18T16:23:51;23.43;;;14.30;;
7845;SDS011;3968;51.424;6.788;2022-12-18T16:26:17;22.63;;;14.33;;
7845;SDS011;3968;51.424;6.788;2022-12-18T16:28:43;21.43;;;13.67;;
7845;SDS011;3968;51.424;6.788;2022-12-18T16:31:09;21.30;;;14.13;;
7845;SDS011;3968;51.424;6.788;2022-12-18T16:33:35;23.00;;;14.67;;
7845;SDS011;3968;51.424;6.788;2022-12-18T16:36:01;21.93;;;14.27;;
7845;SDS011;3968;51.424;6.788;2022-12-18T16:38:27;21.17;;;13.67;;
7845;SDS011;3968;51.424;6.788;2022-12-18T16:40:53;23.83;;;15.43;;
7845;SDS011;3968;51.424;6.788;2022-12-18T16:43:38;22.50;;;14.00;;
7845;SDS011;3968;51.424;6.788;2022-12-18T16:46:04;22.17;;;13.30;;
7845;SDS011;3968;51.424;6.788;2022-12-18T16:48:30;24.00;;;14.40;;
7845;SDS011;3968;51.424;6.788;2022-12-18T16:51:00;24.33;;;15.40;;
7845;SDS011;3968;51.424;6.788;2022-12-18T16:53:26;22.07;;;14.47;;
7845;SDS011;3968;51.424;6.788;2022-12-18T16:55:55;23.13;;;14.67;;
7845;SDS011;3968;51.424;6.788;2022-12-18T16:58:22;22.53;;;14.87;;
7845;SDS011;3968;51.424;6.788;2022-12-18T17:00:48;24.63;;;14.77;;
7845;SDS011;3968;51.424;6.788;2022-12-18T17:03:14;24.60;;;15.60;;